Time,TemperatureF,DewpointF,PressureIn,WindDirection,WindDirectionDegrees,WindSpeedMPH,WindSpeedGustMPH,Humidity,HourlyPrecipIn,Conditions,Clouds,dailyrainin,SolarRadiationWatts/m^2,SoftwareType,DateUTC
2013-09-07 00:02:00,71.0,31.0,30.04,North,358,11.0,18.0,23,0.00,,,0.00,0.000000,,2013-09-07 07:02:00,
2013-09-07 00:12:00,71.0,31.0,30.04,North,358,11.0,18.0,23,0.00,,,0.00,0.000000,,2013-09-07 07:12:00,
2013-09-07 00:43:00,72.0,26.0,30.04,NNW,330,7.0,15.0,18,0.00,,,0.00,0.000000,,2013-09-07 07:43:00,
2013-09-07 00:52:00,72.0,26.0,30.04,NNW,330,7.0,15.0,18,0.00,,,0.00,0.000000,,2013-09-07 07:52:00,
2013-09-07 01:02:00,72.0,26.0,30.04,NNW,330,7.0,15.0,18,0.00,,,0.00,0.000000,,2013-09-07 08:02:00,
2013-09-07 01:43:00,72.0,23.0,30.04,NNW,341,6.0,8.0,16,0.00,,,0.00,0.000000,,2013-09-07 08:43:00,
2013-09-07 01:53:00,72.0,23.0,30.04,NNW,341,6.0,8.0,16,0.00,,,0.00,0.000000,,2013-09-07 08:53:00,
2013-09-07 02:01:00,72.0,23.0,30.04,NNW,341,6.0,8.0,16,0.00,,,0.00,0.000000,,2013-09-07 09:01:00,
2013-09-07 02:12:00,72.0,23.0,30.04,NNW,341,6.0,8.0,16,0.00,,,0.00,0.000000,,2013-09-07 09:12:00,
2013-09-07 04:43:00,72.0,32.0,30.02,SSW,208,1.0,4.0,23,0.00,,,-99.99,0.000000,,2013-09-07 11:43:00,
2013-09-07 04:52:00,72.0,32.0,30.02,SSW,208,1.0,4.0,23,0.00,,,-99.99,0.000000,,2013-09-07 11:52:00,
2013-09-07 05:02:00,72.0,32.0,30.02,SSW,208,1.0,4.0,23,0.00,,,-99.99,0.000000,,2013-09-07 12:02:00,
2013-09-07 05:12:00,72.0,32.0,30.02,SSW,208,1.0,4.0,23,0.00,,,-99.99,0.000000,,2013-09-07 12:12:00,
2013-09-07 05:42:00,72.0,31.0,30.01,South,179,7.0,8.0,22,0.00,,,0.00,0.000000,,2013-09-07 12:42:00,
2013-09-07 05:52:00,72.0,31.0,30.01,South,179,7.0,8.0,22,0.00,,,0.00,0.000000,,2013-09-07 12:52:00,
2013-09-07 06:02:00,72.0,31.0,30.01,South,179,7.0,8.0,22,0.00,,,0.00,0.000000,,2013-09-07 13:02:00,
2013-09-07 06:11:00,72.0,31.0,30.01,South,179,7.0,8.0,22,0.00,,,0.00,0.000000,,2013-09-07 13:11:00,
2013-09-07 06:42:00,70.0,28.0,30.02,South,190,6.0,10.0,21,0.00,,,0.00,0.000000,,2013-09-07 13:42:00,
2013-09-07 06:52:00,70.0,28.0,30.02,South,190,6.0,10.0,21,0.00,,,0.00,0.000000,,2013-09-07 13:52:00,
2013-09-07 07:02:00,70.0,28.0,30.02,South,190,6.0,10.0,21,0.00,,,0.00,0.000000,,2013-09-07 14:02:00,
2013-09-07 07:11:00,70.0,28.0,30.02,South,190,6.0,10.0,21,0.00,,,0.00,0.000000,,2013-09-07 14:11:00,
2013-09-07 07:42:00,72.0,30.0,30.03,SSW,197,5.0,8.0,21,0.00,,,0.00,0.000000,,2013-09-07 14:42:00,
2013-09-07 07:52:00,72.0,30.0,30.03,SSW,197,5.0,8.0,21,0.00,,,0.00,0.000000,,2013-09-07 14:52:00,
2013-09-07 08:02:00,72.0,30.0,30.03,SSW,197,5.0,8.0,21,0.00,,,0.00,0.000000,,2013-09-07 15:02:00,
2013-09-07 08:11:00,72.0,30.0,30.03,SSW,197,5.0,8.0,21,0.00,,,0.00,0.000000,,2013-09-07 15:11:00,
2013-09-07 08:54:00,73.0,27.0,30.04,SSE,163,4.0,8.0,18,0.00,,,0.00,10.000000,,2013-09-07 15:54:00,
2013-09-07 09:03:00,73.0,27.0,30.04,SSE,163,4.0,8.0,18,0.00,,,0.00,10.000000,,2013-09-07 16:03:00,
2013-09-07 09:43:00,76.0,34.0,30.04,NW,325,2.0,7.0,22,0.00,,,0.00,151.000000,,2013-09-07 16:43:00,
2013-09-07 09:53:00,76.0,34.0,30.04,NW,325,2.0,7.0,22,0.00,,,0.00,151.000000,,2013-09-07 16:53:00,
2013-09-07 10:04:00,76.0,34.0,30.04,NW,325,2.0,7.0,22,0.00,,,0.00,151.000000,,2013-09-07 17:04:00,
2013-09-07 10:12:00,76.0,34.0,30.04,NW,325,2.0,7.0,22,0.00,,,0.00,151.000000,,2013-09-07 17:12:00,
2013-09-07 10:43:00,75.0,31.0,30.06,East,94,4.0,7.0,20,0.00,,,0.00,218.000000,,2013-09-07 17:43:00,
2013-09-07 10:52:00,75.0,31.0,30.06,East,94,4.0,7.0,20,0.00,,,0.00,218.000000,,2013-09-07 17:52:00,
2013-09-07 11:01:00,75.0,31.0,30.06,East,94,4.0,7.0,20,0.00,,,0.00,218.000000,,2013-09-07 18:01:00,
2013-09-07 11:12:00,75.0,31.0,30.06,East,94,4.0,7.0,20,0.00,,,0.00,218.000000,,2013-09-07 18:12:00,
2013-09-07 11:43:00,75.0,32.0,30.06,ESE,107,5.0,8.0,21,0.00,,,0.00,240.000000,,2013-09-07 18:43:00,
2013-09-07 11:52:00,75.0,32.0,30.06,ESE,107,5.0,8.0,21,0.00,,,0.00,240.000000,,2013-09-07 18:52:00,
2013-09-07 12:02:00,75.0,32.0,30.06,ESE,107,5.0,8.0,21,0.00,,,0.00,240.000000,,2013-09-07 19:02:00,
2013-09-07 12:11:00,75.0,32.0,30.06,ESE,107,5.0,8.0,21,0.00,,,0.00,240.000000,,2013-09-07 19:11:00,
2013-09-07 12:42:00,76.0,36.0,30.06,SW,216,6.0,12.0,23,0.00,,,0.00,237.000000,,2013-09-07 19:42:00,
2013-09-07 12:52:00,76.0,36.0,30.06,SW,216,6.0,12.0,23,0.00,,,0.00,237.000000,,2013-09-07 19:52:00,
2013-09-07 13:02:00,76.0,36.0,30.06,SW,216,6.0,12.0,23,0.00,,,0.00,237.000000,,2013-09-07 20:02:00,
2013-09-07 13:11:00,76.0,36.0,30.06,SW,216,6.0,12.0,23,0.00,,,0.00,237.000000,,2013-09-07 20:11:00,
2013-09-07 13:42:00,79.0,36.0,30.06,North,11,5.0,14.0,21,0.00,,,0.00,215.000000,,2013-09-07 20:42:00,
2013-09-07 13:53:00,79.0,36.0,30.06,North,11,5.0,14.0,21,0.00,,,0.00,215.000000,,2013-09-07 20:53:00,
2013-09-07 14:02:00,79.0,36.0,30.06,North,11,5.0,14.0,21,0.00,,,0.00,215.000000,,2013-09-07 21:02:00,
2013-09-07 14:12:00,79.0,36.0,30.06,North,11,5.0,14.0,21,0.00,,,0.00,215.000000,,2013-09-07 21:12:00,
2013-09-07 14:44:00,78.0,32.0,30.05,NW,316,4.0,12.0,19,0.00,,,0.00,161.000000,,2013-09-07 21:44:00,
2013-09-07 14:54:00,78.0,32.0,30.05,NW,316,4.0,12.0,19,0.00,,,0.00,161.000000,,2013-09-07 21:54:00,
2013-09-07 15:04:00,78.0,32.0,30.05,NW,316,4.0,12.0,19,0.00,,,0.00,161.000000,,2013-09-07 22:04:00,
2013-09-07 15:13:00,78.0,32.0,30.05,NW,316,4.0,12.0,19,0.00,,,0.00,161.000000,,2013-09-07 22:13:00,
2013-09-07 15:43:00,76.0,31.0,30.04,NNW,348,4.0,14.0,19,0.00,,,0.00,77.000000,,2013-09-07 22:43:00,
2013-09-07 15:53:00,76.0,31.0,30.04,NNW,348,4.0,14.0,19,0.00,,,0.00,77.000000,,2013-09-07 22:53:00,
2013-09-07 16:03:00,76.0,31.0,30.04,NNW,348,4.0,14.0,19,0.00,,,0.00,77.000000,,2013-09-07 23:03:00,
2013-09-07 16:12:00,76.0,31.0,30.04,NNW,348,4.0,14.0,19,0.00,,,0.00,77.000000,,2013-09-07 23:12:00,
2013-09-07 16:42:00,81.0,33.0,30.03,WSW,241,3.0,15.0,18,0.00,,,0.00,41.000000,,2013-09-07 23:42:00,
2013-09-07 16:53:00,81.0,33.0,30.03,WSW,241,3.0,15.0,18,0.00,,,0.00,41.000000,,2013-09-07 23:53:00,
2013-09-07 17:02:00,81.0,33.0,30.03,WSW,241,3.0,15.0,18,0.00,,,0.00,41.000000,,2013-09-08 00:02:00,
2013-09-07 17:11:00,81.0,33.0,30.03,WSW,241,3.0,15.0,18,0.00,,,0.00,41.000000,,2013-09-08 00:11:00,
2013-09-07 17:42:00,79.0,33.0,30.02,West,262,4.0,18.0,19,0.00,,,0.00,30.000000,,2013-09-08 00:42:00,
2013-09-07 17:52:00,79.0,33.0,30.02,West,262,4.0,18.0,19,0.00,,,0.00,30.000000,,2013-09-08 00:52:00,
2013-09-07 18:01:00,79.0,33.0,30.02,West,262,4.0,18.0,19,0.00,,,0.00,30.000000,,2013-09-08 01:01:00,
2013-09-07 18:11:00,79.0,33.0,30.02,West,262,4.0,18.0,19,0.00,,,0.00,30.000000,,2013-09-08 01:11:00,
2013-09-07 18:42:00,76.0,38.0,30.01,WNW,283,5.0,18.0,25,0.00,,,0.00,25.000000,,2013-09-08 01:42:00,
2013-09-07 18:52:00,76.0,38.0,30.01,WNW,283,5.0,18.0,25,0.00,,,0.00,25.000000,,2013-09-08 01:52:00,
2013-09-07 19:02:00,76.0,38.0,30.01,WNW,283,5.0,18.0,25,0.00,,,0.00,25.000000,,2013-09-08 02:02:00,
2013-09-07 19:11:00,76.0,38.0,30.01,WNW,283,5.0,18.0,25,0.00,,,0.00,25.000000,,2013-09-08 02:11:00,
2013-09-07 19:43:00,73.0,35.0,30.01,NW,305,10.0,21.0,25,0.00,,,-99.99,19.000000,,2013-09-08 02:43:00,
2013-09-07 19:52:00,73.0,35.0,30.01,NW,305,10.0,21.0,25,0.00,,,-99.99,19.000000,,2013-09-08 02:52:00,
2013-09-07 20:02:00,73.0,35.0,30.01,NW,305,10.0,21.0,25,0.00,,,-99.99,19.000000,,2013-09-08 03:02:00,
2013-09-07 20:12:00,73.0,35.0,30.01,NW,305,10.0,21.0,25,0.00,,,-99.99,19.000000,,2013-09-08 03:12:00,
2013-09-07 20:44:00,69.0,36.0,30.02,WNW,290,8.0,21.0,30,0.00,,,0.00,10.000000,,2013-09-08 03:44:00,
2013-09-07 20:54:00,69.0,36.0,30.02,WNW,290,8.0,21.0,30,0.00,,,0.00,10.000000,,2013-09-08 03:54:00,
2013-09-07 21:02:00,-999.0,-99.9,30.02,WNW,290,8.0,21.0,-999,-99.99,,,-99.99,10.000000,,2013-09-08 04:02:00,
2013-09-07 21:14:00,69.0,36.0,30.02,WNW,290,8.0,21.0,30,0.00,,,0.00,10.000000,,2013-09-08 04:14:00,
2013-09-07 21:43:00,73.0,39.0,30.03,NNW,344,3.0,16.0,29,0.00,,,0.00,1.000000,,2013-09-08 04:43:00,
2013-09-07 21:54:00,73.0,39.0,30.03,NNW,344,3.0,16.0,29,0.00,,,0.00,1.000000,,2013-09-08 04:54:00,
2013-09-07 22:03:00,73.0,39.0,30.03,NNW,344,3.0,16.0,29,0.00,,,0.00,1.000000,,2013-09-08 05:03:00,
2013-09-07 22:12:00,73.0,39.0,30.03,NNW,344,3.0,16.0,29,0.00,,,0.00,1.000000,,2013-09-08 05:12:00,
2013-09-07 22:43:00,73.0,37.0,30.04,SSE,164,2.0,6.0,27,0.00,,,0.00,0.000000,,2013-09-08 05:43:00,
2013-09-07 22:52:00,73.0,37.0,30.04,SSE,164,2.0,6.0,27,0.00,,,0.00,0.000000,,2013-09-08 05:52:00,
2013-09-07 23:02:00,73.0,37.0,30.04,SSE,164,2.0,6.0,27,0.00,,,0.00,0.000000,,2013-09-08 06:02:00,
2013-09-07 23:12:00,73.0,37.0,30.04,SSE,164,2.0,6.0,27,0.00,,,0.00,0.000000,,2013-09-08 06:12:00,